Latest Weather Observations for Tasman Island

IDT60801

Issued at 5:02 am EST Monday 2 May 2016 (issued every 30 minutes, with the page automatically refreshed every 10 minutes)

About weather observations | Map of weather stations | Latest weather observations for TAS | Other Formats
Station Details ID: 094155 Name: TASMAN ISLAND Lat: -43.24 Lon: 148.00 Height: 240.0 m
Data from the previous 72 hours. | See also: Recent months at Tasman Island
Date/Time
EST
Temp
°C
App
Temp
°C
Dew
Point
Rel
Hum
%
Delta-T
°C
Wind Press
QNH
hPa
Press
MSL
hPa
Rain
since 9 am
mm
Dir
 
Spd
km/h
Gust
km/h
Spd
kts
Gust
kts
02/05:00am 9.0 1.4 3.8 70 2.3 NW 33 48 18 26 1001.2 1001.3 -
02/04:50am 9.0 3.0 3.6 69 2.4 WNW 24 48 13 26 1000.9 1001.0 -
02/04:30am 9.4 4.4 3.8 68 2.5 SW 19 50 10 27 1000.2 1000.3 -
02/04:00am 8.8 4.9 3.4 69 2.4 WNW 13 39 7 21 1000.1 1000.2 -
02/03:30am 8.9 5.0 3.5 69 2.4 W 13 43 7 23 1000.6 1000.7 -
02/03:00am 8.6 2.7 3.8 72 2.1 NW 24 48 13 26 1000.3 1000.4 0.2
02/02:30am 8.6 3.9 3.0 68 2.4 WNW 17 50 9 27 1000.0 1000.1 -
02/02:00am 8.5 3.9 3.6 71 2.2 W 17 56 9 30 1000.0 1000.1 -
02/01:30am 8.3 4.9 3.8 73 2.0 WSW 11 52 6 28 999.6 999.6 -
02/01:00am 8.6 4.8 3.8 72 2.1 NE 13 48 7 26 999.2 999.2 -
02/12:30am 8.6 4.4 3.6 71 2.2 N 15 48 8 26 998.1 998.1 -
02/12:00am 8.9 4.0 4.1 72 2.1 NW 19 59 10 32 997.4 997.4 -
 
Date/Time
EST
Temp
°C
App
Temp
°C
Dew
Point
Rel
Hum
%
Delta-T
°C
Wind Press
QNH
hPa
Press
MSL
hPa
Rain
since 9 am
mm
Dir
 
Spd
km/h
Gust
km/h
Spd
kts
Gust
kts
01/11:30pm 8.7 3.8 4.9 77 1.7 NW 20 69 11 37 996.6 996.7 -
01/11:02pm 8.5 2.6 5.6 82 1.3 WSW 26 80 14 43 996.5 996.6 -
01/11:00pm 8.5 2.6 5.8 83 1.3 WSW 26 61 14 33 996.6 996.7 -
01/10:55pm 8.7 2.0 5.8 82 1.3 WSW 30 61 16 33 996.5 996.6 -
01/10:45pm 8.8 4.0 5.5 80 1.5 NW 20 80 11 43 996.5 996.6 -
01/10:30pm 9.0 4.6 6.4 84 1.2 ENE 19 65 10 35 996.1 996.2 -
01/10:00pm 9.1 1.7 6.9 86 1.1 WSW 35 78 19 42 994.7 994.7 -
01/09:51pm 8.6 0.7 6.4 86 1.0 WSW 37 83 20 45 995.0 995.0 -
01/09:44pm 9.4 3.3 6.7 83 1.3 SW 28 83 15 45 994.6 994.6 -
01/09:42pm 9.4 3.7 6.7 83 1.3 WSW 26 83 14 45 994.5 994.5 -
01/09:41pm 9.3 4.0 6.7 84 1.2 WSW 24 82 13 44 994.4 994.4 -
01/09:35pm 9.4 1.7 7.2 86 1.1 W 37 85 20 46 994.3 994.3 -
01/09:30pm 9.5 1.1 7.4 87 1.0 WSW 41 96 22 52 994.3 994.3 -
01/09:00pm 9.8 2.5 8.7 93 0.6 WSW 37 109 20 59 993.2 993.2 -
01/08:55pm 9.9 0.9 9.0 94 0.4 WSW 46 109 25 59 992.4 992.4 -
01/08:30pm 8.8 -1.9 8.2 96 0.3 WSW 54 106 29 57 991.3 991.3 -
01/08:14pm 9.3 -0.5 8.8 97 0.2 WSW 50 135 27 73 991.2 991.2 -
01/08:00pm 9.8 -0.2 9.3 97 0.3 WSW 52 111 28 60 990.7 990.7 -
01/07:40pm 9.4 1.8 8.9 97 0.2 WSW 39 100 21 54 989.6 989.6 -
01/07:30pm 9.3 3.7 8.8 97 0.2 SW 28 76 15 41 989.6 989.6 -
01/07:25pm 9.9 4.5 9.4 97 0.3 SW 28 96 15 52 989.8 989.8 -
01/07:04pm 9.9 2.4 9.4 97 0.3 WSW 39 104 21 56 987.7 987.7 -
01/07:00pm 10.2 2.4 9.7 97 0.3 W 41 104 22 56 987.6 987.6 -
01/06:49pm 10.5 3.1 9.9 96 0.3 WSW 39 106 21 57 986.4 986.4 -
01/06:44pm 10.8 3.9 10.2 96 0.3 SW 37 106 20 57 986.7 986.7 -
01/06:43pm 11.0 4.1 10.4 96 0.3 SW 37 95 20 51 986.7 986.7 -
01/06:41pm 10.8 3.8 10.0 95 0.4 WSW 37 95 20 51 986.7 986.7 -
01/06:39pm 10.9 3.9 10.1 95 0.4 WSW 37 89 20 48 986.2 986.2 -
01/06:34pm 11.4 5.3 10.5 94 0.5 WSW 33 87 18 47 986.5 986.5 -
01/06:30pm 11.1 6.2 10.0 93 0.6 WNW 26 87 14 47 986.2 986.2 -
01/06:27pm 11.1 6.5 9.7 91 0.7 NW 24 87 13 47 987.1 987.1 -
01/06:00pm 12.5 10.3 10.7 89 1.0 WNW 13 43 7 23 988.1 988.1 -
01/05:30pm 12.8 11.6 10.2 84 1.4 SW 7 24 4 13 988.1 988.1 -
01/05:00pm 12.9 11.3 8.8 76 2.1 NE 7 32 4 17 987.7 987.7 -
01/04:30pm 13.2 11.4 8.1 71 2.6 W 7 24 4 13 987.5 987.5 -
01/04:00pm 13.2 9.0 7.6 69 2.8 WNW 19 32 10 17 987.4 987.4 -
01/03:30pm 13.7 9.7 8.1 69 2.8 NW 19 26 10 14 987.2 987.2 -
01/03:00pm 13.7 11.2 8.1 69 2.9 NNW 11 19 6 10 987.4 987.4 -
01/02:30pm 13.7 10.3 7.5 66 3.1 NNW 15 28 8 15 987.8 987.8 -
01/02:00pm 13.8 9.7 7.8 67 3.0 N 19 32 10 17 988.8 988.7 -
01/01:30pm 13.3 8.8 6.9 65 3.1 NW 20 32 11 17 988.7 988.6 -
01/01:04pm 14.0 8.1 10.4 79 1.9 NNE 32 59 17 32 989.8 989.8 -
01/01:00pm 14.0 8.5 10.4 79 1.9 NNE 30 37 16 20 989.9 989.9 -
01/12:34pm 14.5 8.9 10.1 75 2.3 NNE 30 54 16 29 990.6 990.6 -
01/12:30pm 14.4 9.6 10.4 77 2.1 NNE 26 44 14 24 990.8 990.8 -
01/12:00pm 13.9 8.3 10.3 79 1.9 NNW 30 48 16 26 991.8 991.8 -
01/11:55am 13.6 8.4 10.4 81 1.7 NNW 28 54 15 29 992.0 992.0 -
01/11:30am 12.7 9.8 10.9 89 1.0 N 17 26 9 14 992.8 992.8 -
01/11:00am 12.8 10.0 11.4 91 0.8 NNW 17 26 9 14 993.6 993.6 -
01/10:30am 12.8 8.5 11.9 94 0.5 NW 26 44 14 24 994.7 994.7 4.8
01/10:00am 13.0 7.3 11.9 93 0.6 NW 33 69 18 37 994.0 994.0 2.8
01/09:56am 13.8 10.5 12.7 93 0.6 NW 22 69 12 37 994.5 994.3 0.0
01/09:30am 15.6 10.4 14.6 94 0.6 N 35 54 19 29 995.7 995.6 0.0
01/09:00am 15.4 9.9 14.6 95 0.5 N 37 54 20 29 996.0 995.9 1.2
01/08:30am 16.0 10.3 15.2 95 0.5 NNE 39 61 21 33 996.8 996.7 1.0
01/08:15am 16.1 10.4 15.3 95 0.5 NNE 39 59 21 32 996.9 996.8 1.0
01/08:00am 15.9 10.8 14.9 94 0.6 NNE 35 52 19 28 997.3 997.1 1.0
01/07:59am 15.8 11.1 14.8 94 0.6 NNE 33 52 18 28 997.3 997.1 1.0
01/07:30am 15.6 11.2 14.0 90 0.9 NNE 30 41 16 22 998.3 998.2 1.0
01/07:00am 15.6 11.8 13.6 88 1.1 NNE 26 33 14 18 998.9 998.8 1.0
01/06:30am 15.4 12.3 13.4 88 1.1 NNE 22 32 12 17 999.6 999.5 1.0
01/06:00am 15.2 11.0 13.6 90 0.9 N 28 37 15 20 1000.6 1000.5 1.0
01/05:30am 14.9 11.6 12.9 88 1.1 NNE 22 32 12 17 1001.1 1001.0 1.0
01/05:00am 15.0 9.9 13.2 89 1.0 NNE 32 41 17 22 1001.7 1001.5 1.0
01/04:30am 14.9 10.9 12.9 88 1.1 NNE 26 32 14 17 1002.4 1002.3 1.0
01/04:05am 15.5 11.2 13.2 86 1.3 N 28 48 15 26 1002.6 1002.5 1.0
01/04:00am 15.2 10.4 12.9 86 1.3 N 30 39 16 21 1002.7 1002.6 1.0
01/03:30am 14.7 10.7 13.1 90 0.9 N 26 35 14 19 1003.1 1003.0 1.0
01/03:00am 14.8 9.7 13.2 90 0.9 N 32 39 17 21 1003.2 1003.1 1.0
01/02:30am 14.8 9.8 13.3 91 0.8 N 32 41 17 22 1004.1 1004.0 1.0
01/02:00am 14.8 8.8 13.2 90 0.9 N 37 50 20 27 1004.9 1004.8 0.6
01/01:30am 15.3 10.2 13.0 86 1.3 N 32 41 17 22 1005.6 1005.6 0.0
01/01:03am 15.8 10.4 12.7 82 1.7 N 33 54 18 29 1006.3 1006.2 0.0
01/01:00am 16.0 10.2 12.7 81 1.8 N 35 52 19 28 1006.3 1006.2 0.0
01/12:52am 16.2 11.3 12.7 80 2.0 N 30 50 16 27 1006.2 1006.1 0.0
01/12:30am 16.7 12.2 12.5 76 2.3 N 28 39 15 21 1006.4 1006.3 0.0
01/12:00am 16.5 11.6 12.7 78 2.1 N 30 39 16 21 1006.7 1006.6 0.0
 
Date/Time
EST
Temp
°C
App
Temp
°C
Dew
Point
Rel
Hum
%
Delta-T
°C
Wind Press
QNH
hPa
Press
MSL
hPa
Rain
since 9 am
mm
Dir
 
Spd
km/h
Gust
km/h
Spd
kts
Gust
kts
30/11:30pm 15.9 11.7 12.3 79 2.0 N 26 37 14 20 1007.2 1007.1 0.0
30/11:00pm 16.4 11.3 11.8 74 2.5 N 30 41 16 22 1007.4 1007.3 0.0
30/10:48pm 16.6 11.9 12.0 74 2.5 NNW 28 48 15 26 1007.4 1007.3 0.0
30/10:30pm 16.3 11.1 11.5 73 2.6 N 30 41 16 22 1007.7 1007.6 0.0
30/10:00pm 16.1 9.9 11.5 74 2.5 N 35 44 19 24 1008.0 1007.9 0.0
30/09:48pm 16.1 10.2 11.3 73 2.6 N 33 52 18 28 1007.8 1007.7 0.0
30/09:30pm 16.1 10.6 11.7 75 2.4 NNW 32 44 17 24 1007.8 1007.7 0.0
30/09:00pm 16.0 10.3 11.2 73 2.6 N 32 39 17 21 1007.8 1007.7 0.0
30/08:30pm 15.9 10.2 11.7 76 2.3 N 33 44 18 24 1007.7 1007.6 0.0
30/08:00pm 16.3 10.6 11.9 75 2.4 N 33 50 18 27 1007.9 1007.8 0.0
30/07:30pm 16.1 11.1 12.1 77 2.2 N 30 37 16 20 1008.0 1007.9 0.0
30/07:00pm 16.3 10.8 11.9 75 2.4 N 32 39 17 21 1007.8 1007.7 0.0
30/06:30pm 16.4 11.9 11.3 72 2.8 N 26 33 14 18 1008.0 1007.9 0.0
30/06:00pm 16.8 13.2 11.7 72 2.8 N 22 35 12 19 1008.0 1007.9 0.0
30/05:30pm 16.5 10.6 12.3 76 2.3 N 35 46 19 25 1007.8 1007.7 0.0
30/05:00pm 16.1 10.3 12.7 80 1.9 N 35 46 19 25 1007.7 1007.6 0.0
30/04:30pm 16.1 10.3 12.7 80 1.9 N 35 44 19 24 1007.7 1007.6 0.0
30/04:00pm 17.1 11.0 11.6 70 3.0 N 35 57 19 31 1008.3 1008.2 0.0
30/03:39pm 17.0 10.2 12.1 73 2.7 N 39 57 21 31 1008.1 1008.0 0.0
30/03:30pm 16.9 9.3 11.8 72 2.8 N 43 56 23 30 1008.1 1008.0 0.0
30/03:00pm 16.4 10.1 12.4 77 2.2 NNE 37 50 20 27 1008.3 1008.2 0.0
30/02:30pm 17.0 9.3 11.5 70 3.0 N 43 54 23 29 1008.3 1008.2 0.0
30/02:00pm 17.4 9.8 11.9 70 3.1 N 43 54 23 29 1008.3 1008.2 0.0
30/01:30pm 17.9 12.3 11.5 66 3.5 N 32 41 17 22 1008.6 1008.5 0.0
30/01:00pm 17.5 12.6 12.4 72 2.9 N 30 41 16 22 1008.9 1008.9 0.0
30/12:30pm 17.0 10.9 10.6 66 3.5 N 33 43 18 23 1009.6 1009.6 0.0
30/12:00pm 17.2 11.7 10.6 65 3.6 N 30 44 16 24 1010.1 1010.0 0.0
30/11:30am 16.9 12.2 10.7 67 3.4 NNE 26 37 14 20 1010.7 1010.6 0.0
30/11:00am 18.3 13.8 8.6 53 5.1 NNW 22 37 12 20 1011.0 1010.9 0.0
30/10:30am 17.7 11.2 8.0 53 5.0 NNW 32 48 17 26 1011.1 1011.0 0.0
30/10:17am 17.1 10.5 8.5 57 4.5 NNW 33 52 18 28 1011.3 1011.2 0.0
30/10:00am 16.5 10.6 9.2 62 3.8 N 30 43 16 23 1011.3 1011.2 0.0
30/09:30am 15.2 9.3 10.6 74 2.5 NNE 32 43 17 23 1011.4 1011.3 0.0
30/09:00am 15.1 11.0 10.1 72 2.6 NNE 22 33 12 18 1011.9 1011.8 -
30/08:30am 15.6 12.1 8.6 63 3.6 N 17 30 9 16 1011.8 1011.7 -
30/08:00am 15.1 11.1 8.3 64 3.5 N 19 26 10 14 1011.7 1011.6 -
30/07:30am 14.6 9.9 7.6 63 3.5 NNW 22 32 12 17 1011.6 1011.5 -
30/07:00am 15.3 10.1 7.1 58 4.1 NW 24 33 13 18 1011.4 1011.3 -
30/06:30am 15.5 9.5 7.0 57 4.2 NW 28 39 15 21 1011.1 1011.0 -
30/06:00am 15.2 8.9 7.3 59 4.0 NW 30 43 16 23 1010.9 1010.8 -
30/05:30am 14.8 10.0 8.7 67 3.1 NW 24 35 13 19 1011.1 1011.0 -
30/05:00am 14.8 9.6 8.7 67 3.1 NW 26 37 14 20 1010.7 1010.6 -
30/04:30am 15.2 9.1 8.4 64 3.5 NW 30 41 16 22 1010.7 1010.6 -
30/04:00am 15.4 9.2 7.9 61 3.8 NW 30 43 16 23 1010.4 1010.3 -
30/03:30am 15.1 11.1 8.1 63 3.6 NW 19 32 10 17 1010.3 1010.2 -
30/03:00am 15.3 9.6 8.5 64 3.5 NW 28 46 15 25 1010.3 1010.2 0.0
30/02:30am 15.4 9.3 8.4 63 3.6 NW 30 43 16 23 1010.2 1010.1 -
30/02:00am 15.4 10.5 8.4 63 3.6 WNW 24 35 13 19 1010.1 1010.0 -
30/01:30am 15.2 10.5 9.3 68 3.1 NW 24 35 13 19 1010.2 1010.1 -
30/01:00am 15.2 10.6 9.8 70 2.8 NW 24 33 13 18 1010.2 1010.1 -
30/12:30am 15.6 10.3 9.9 69 3.0 NW 28 41 15 22 1009.9 1009.9 -
30/12:00am 15.4 10.9 10.2 71 2.8 WNW 24 35 13 19 1009.8 1009.8 -
 
Date/Time
EST
Temp
°C
App
Temp
°C
Dew
Point
Rel
Hum
%
Delta-T
°C
Wind Press
QNH
hPa
Press
MSL
hPa
Rain
since 9 am
mm
Dir
 
Spd
km/h
Gust
km/h
Spd
kts
Gust
kts
29/11:30pm 15.6 8.7 10.2 70 2.9 NW 37 48 20 26 1009.7 1009.7 -
29/11:04pm 15.8 10.2 10.3 70 2.9 NW 30 50 16 27 1009.9 1009.9 -
29/11:00pm 15.6 10.4 10.4 71 2.8 NW 28 44 15 24 1009.8 1009.8 -
29/10:30pm 15.4 11.1 10.6 73 2.6 NW 24 41 13 22 1010.2 1010.1 -
29/10:00pm 15.1 10.1 10.9 76 2.3 NNW 28 41 15 22 1010.3 1010.2 -
29/09:44pm 15.3 10.0 11.1 76 2.3 NNW 30 52 16 28 1010.1 1010.0 -
29/09:30pm 15.1 10.5 10.9 76 2.3 NW 26 41 14 22 1010.1 1010.0 -
29/09:00pm 15.1 10.2 11.3 78 2.1 NNW 28 44 15 24 1009.4 1009.4 -
29/08:30pm 14.8 10.0 11.8 82 1.6 NNW 28 41 15 22 1009.1 1009.1 -
29/08:10pm 14.5 9.3 11.7 83 1.5 NNW 30 48 16 26 1009.0 1009.0 -
29/08:00pm 14.5 8.8 11.8 84 1.5 N 33 50 18 27 1008.7 1008.6 -
29/07:57pm 14.4 8.9 11.7 84 1.5 N 32 50 17 27 1008.8 1008.7 -
29/07:30pm 14.4 8.5 12.3 87 1.2 N 35 52 19 28 1009.0 1009.0 -
29/07:00pm 14.3 6.6 12.0 86 1.3 NNW 44 67 24 36 1009.0 1009.0 -
29/06:30pm 14.5 6.1 12.4 87 1.2 NNW 48 80 26 43 1009.1 1009.1 -
29/06:24pm 14.5 7.1 12.5 88 1.1 NNW 43 80 23 43 1009.2 1009.2 -
29/06:12pm 14.7 8.1 12.6 87 1.2 NNW 39 57 21 31 1009.3 1009.3 -
29/06:00pm 15.0 9.6 12.9 87 1.2 NNW 33 48 18 26 1009.4 1009.4 -
29/05:40pm 15.2 10.3 12.7 85 1.4 NNW 30 50 16 27 1009.3 1009.3 -
29/05:30pm 15.6 9.8 12.7 83 1.6 NNW 35 50 19 27 1009.2 1009.2 -
29/05:00pm 15.9 9.7 12.8 82 1.7 NNW 37 57 20 31 1008.8 1008.7 -
29/04:31pm 16.1 10.9 12.7 80 1.9 NNW 32 50 17 27 1009.1 1009.1 -
29/04:30pm 16.3 10.9 12.8 80 2.0 NNW 33 50 18 27 1009.1 1009.1 -
29/04:19pm 16.5 10.4 13.0 80 2.0 NNW 37 67 20 36 1009.0 1009.0 -
29/04:02pm 16.2 12.1 13.7 85 1.4 N 28 46 15 25 1008.8 1008.7 0.8
29/04:00pm 16.1 12.3 13.6 85 1.4 N 26 44 14 24 1008.9 1008.9 0.6
29/03:36pm 16.3 11.5 14.0 86 1.3 N 32 50 17 27 1008.9 1008.9 0.4
29/03:30pm 16.0 11.0 14.0 88 1.1 N 33 43 18 23 1009.1 1009.1 0.4
29/03:00pm 16.7 14.2 13.4 81 1.9 N 19 30 10 16 1009.2 1009.2 0.0
29/02:30pm 17.9 13.1 12.8 72 2.9 N 30 43 16 23 1009.1 1009.1 0.0
29/02:00pm 17.2 14.1 13.3 78 2.2 N 22 37 12 20 1009.6 1009.6 0.0
29/01:30pm 16.9 13.4 13.4 80 2.0 N 24 43 13 23 1009.8 1009.8 0.0
29/01:13pm 16.6 12.5 13.9 84 1.5 N 28 46 15 25 1010.2 1010.1 0.0
29/01:00pm 16.4 12.8 14.1 86 1.3 N 26 37 14 20 1010.5 1010.4 0.0
29/12:30pm 16.1 9.6 14.1 88 1.1 N 41 52 22 28 1010.7 1010.6 0.0
29/12:00pm 16.0 9.2 14.4 90 0.9 N 43 48 23 26 1011.7 1011.6 0.0
29/11:30am 16.1 9.1 14.3 89 1.0 N 44 56 24 30 1012.2 1012.1 0.0
29/11:00am 15.9 9.0 14.1 89 1.0 N 43 54 23 29 1012.8 1012.8 0.0
29/10:30am 15.8 9.1 14.7 93 0.6 N 43 52 23 28 1013.4 1013.4 0.0
29/10:00am 15.1 9.5 14.5 96 0.3 NNE 37 50 20 27 1013.8 1013.8 0.0
29/09:30am 14.9 9.2 14.3 96 0.3 N 37 46 20 25 1014.3 1014.3 0.0
29/09:00am 14.6 8.9 14.1 97 0.3 N 37 46 20 25 1014.8 1014.7 4.2
29/08:30am 14.8 9.5 14.3 97 0.3 N 35 46 19 25 1015.1 1015.0 4.2
29/08:00am 14.7 9.0 14.2 97 0.3 N 37 44 20 24 1015.1 1015.0 4.2
29/07:30am 14.9 9.7 14.4 97 0.3 NNE 35 46 19 25 1015.1 1015.0 4.2
29/07:00am 15.0 9.8 14.4 96 0.3 NNE 35 44 19 24 1015.0 1014.9 4.2
29/06:30am 15.3 9.4 14.7 96 0.3 NNE 39 48 21 26 1015.3 1015.2 4.2
29/06:00am 15.4 10.8 14.6 95 0.5 NNE 32 46 17 25 1015.6 1015.5 4.2
29/05:39am 15.4 11.2 14.6 95 0.5 NNE 30 50 16 27 1015.8 1015.7 4.2
29/05:30am 15.3 10.6 14.3 94 0.6 NNE 32 50 17 27 1015.9 1015.9 4.2
29/05:23am 15.2 11.2 14.2 94 0.6 NNE 28 48 15 26 1015.9 1015.9 4.2

Other Formats:

Comma delimited format used in spreadsheet applications
http://www.bom.gov.au/fwo/IDT60801/IDT60801.95986.axf

JavaScript Object Notation format (JSON) in row-major order
http://www.bom.gov.au/fwo/IDT60801/IDT60801.95986.json